createdAt,value
2023-03-24T00:01:31.883Z,12.86
2023-03-24T00:06:34.794Z,12.76
2023-03-24T00:11:36.737Z,12.82
2023-03-24T00:16:38.398Z,12.72
2023-03-24T00:21:39.094Z,12.67
2023-03-24T00:26:42.265Z,12.65
2023-03-24T00:31:43.235Z,12.58
2023-03-24T00:36:43.996Z,12.56
2023-03-24T00:41:46.470Z,12.58
2023-03-24T00:46:56.366Z,12.61
2023-03-24T00:51:58.263Z,12.64
2023-03-24T00:57:03.196Z,12.55
2023-03-24T01:02:04.011Z,12.59
2023-03-24T01:07:05.654Z,12.57
2023-03-24T01:12:08.621Z,12.55
2023-03-24T01:17:09.943Z,12.51
2023-03-24T01:22:10.565Z,12.45
2023-03-24T01:27:13.332Z,12.40
2023-03-24T01:32:14.352Z,12.47
2023-03-24T01:37:15.075Z,12.40
2023-03-24T01:42:19.890Z,12.33
2023-03-24T01:47:20.622Z,12.31
2023-03-24T01:52:25.698Z,12.40
2023-03-24T01:57:30.914Z,12.35
2023-03-24T02:02:36.439Z,12.36
2023-03-24T02:07:42.284Z,12.40
2023-03-24T02:12:45.205Z,12.42
2023-03-24T02:17:58.067Z,12.30
2023-03-24T02:23:37.511Z,12.14
2023-03-24T02:28:48.539Z,12.15
2023-03-24T02:34:26.235Z,12.08
2023-03-24T02:39:47.919Z,12.15
2023-03-24T02:44:56.864Z,12.15
2023-03-24T02:50:02.174Z,12.21
2023-03-24T02:55:10.908Z,12.21
2023-03-24T03:00:16.812Z,12.24
2023-03-24T03:05:52.166Z,12.26
2023-03-24T03:10:56.778Z,12.24
2023-03-24T03:16:01.692Z,12.30
2023-03-24T03:21:09.885Z,12.41
2023-03-24T03:26:16.591Z,12.36
2023-03-24T03:31:23.730Z,12.34
2023-03-24T03:36:29.534Z,12.09
2023-03-24T03:41:32.561Z,11.99
2023-03-24T03:46:33.717Z,11.97
2023-03-24T03:51:35.415Z,11.94
2023-03-24T03:56:39.243Z,11.89
2023-03-24T04:01:56.275Z,11.82
2023-03-24T04:07:16.572Z,11.75
2023-03-24T04:12:49.825Z,11.69
2023-03-24T04:18:32.096Z,11.67
2023-03-24T04:23:49.896Z,11.52
2023-03-24T04:29:01.245Z,11.54
2023-03-24T04:34:05.250Z,11.54
2023-03-24T04:39:07.039Z,11.59
2023-03-24T04:44:17.633Z,11.54
2023-03-24T04:49:38.937Z,11.64
2023-03-24T04:54:39.635Z,11.68
2023-03-24T04:59:43.116Z,11.70
2023-03-24T05:04:45.013Z,11.72
2023-03-24T05:10:12.570Z,11.69
2023-03-24T05:15:19.951Z,11.68
2023-03-24T05:20:25.739Z,12.01
2023-03-24T05:25:26.396Z,11.96
2023-03-24T05:30:28.482Z,11.94
2023-03-24T05:35:37.849Z,11.87
2023-03-24T05:40:38.737Z,11.93
2023-03-24T05:45:47.535Z,12.04
2023-03-24T05:50:58.597Z,12.07
2023-03-24T05:56:00.728Z,12.22
2023-03-24T06:01:33.468Z,12.28
2023-03-24T06:06:48.264Z,12.42
2023-03-24T06:11:53.056Z,12.47
2023-03-24T06:16:59.200Z,12.32
2023-03-24T06:22:02.894Z,12.29
2023-03-24T06:27:09.029Z,12.30
2023-03-24T06:32:11.767Z,12.34
2023-03-24T06:37:16.549Z,12.28
2023-03-24T06:42:18.574Z,12.29
2023-03-24T06:47:21.110Z,12.38
2023-03-24T06:52:22.193Z,12.51
2023-03-24T06:57:22.984Z,12.60
2023-03-24T07:02:43.416Z,12.62
2023-03-24T07:13:23.083Z,12.91
2023-03-24T07:18:28.622Z,12.94
2023-03-24T07:23:34.715Z,13.04
2023-03-24T07:28:45.286Z,13.14
2023-03-24T07:33:49.056Z,13.39
2023-03-24T07:38:49.742Z,13.59
2023-03-24T07:43:58.094Z,13.72
2023-03-24T07:49:08.677Z,13.85
2023-03-24T07:54:18.329Z,14.07
2023-03-24T07:59:22.214Z,14.28
2023-03-24T08:04:24.347Z,14.46
2023-03-24T08:09:34.061Z,14.60
2023-03-24T08:14:35.296Z,14.91
2023-03-24T08:19:45.388Z,15.42
2023-03-24T08:24:52.988Z,15.92
2023-03-24T08:29:53.637Z,16.06
2023-03-24T08:34:55.662Z,16.12
2023-03-24T08:39:58.792Z,16.20
2023-03-24T08:45:00.600Z,16.37
2023-03-24T08:50:02.586Z,16.33
2023-03-24T08:55:03.924Z,16.23
2023-03-24T09:00:12.045Z,16.23
2023-03-24T09:05:17.300Z,16.46
2023-03-24T09:10:18.722Z,16.35
2023-03-24T09:15:19.675Z,16.50
2023-03-24T09:20:21.826Z,16.68
2023-03-24T09:25:24.816Z,16.71
2023-03-24T09:30:26.066Z,16.95
2023-03-24T09:35:29.012Z,16.95
2023-03-24T09:40:32.285Z,17.07
2023-03-24T09:45:38.243Z,16.89
2023-03-24T09:50:44.414Z,16.78
2023-03-24T09:55:46.185Z,16.90
2023-03-24T10:00:47.684Z,17.15
2023-03-24T10:05:55.404Z,17.16
2023-03-24T10:11:03.018Z,17.39
2023-03-24T10:16:11.421Z,17.12
2023-03-24T10:21:20.897Z,17.22
2023-03-24T10:26:32.920Z,17.44
2023-03-24T10:31:36.028Z,17.61
2023-03-24T10:36:39.372Z,17.59
2023-03-24T10:41:43.825Z,17.49
2023-03-24T10:46:49.076Z,17.35
2023-03-24T10:51:52.521Z,17.38
2023-03-24T10:57:02.621Z,17.67
2023-03-24T11:02:16.913Z,17.97
2023-03-24T11:07:21.591Z,17.93
2023-03-24T11:12:24.345Z,17.70
2023-03-24T11:17:28.306Z,17.65
2023-03-24T11:22:31.325Z,17.60
2023-03-24T11:27:32.567Z,17.51
2023-03-24T11:32:33.538Z,17.67
2023-03-24T11:37:37.787Z,18.05
2023-03-24T11:42:44.137Z,18.34
2023-03-24T11:47:46.716Z,18.36
2023-03-24T11:52:54.125Z,17.73
2023-03-24T11:58:01.090Z,17.51
2023-03-24T12:03:38.084Z,17.67
2023-03-24T12:08:52.872Z,18.12
2023-03-24T12:13:54.005Z,18.23
2023-03-24T12:19:12.062Z,18.31
2023-03-24T12:24:27.602Z,18.89
2023-03-24T12:29:52.013Z,18.22
2023-03-24T12:35:19.123Z,18.07
2023-03-24T12:40:45.811Z,17.63
2023-03-24T12:45:52.655Z,17.58
2023-03-24T12:51:06.942Z,17.51
2023-03-24T12:56:14.189Z,17.35
2023-03-24T13:01:24.755Z,17.47
2023-03-24T13:06:32.414Z,17.39
2023-03-24T13:11:44.422Z,17.21
2023-03-24T13:16:48.630Z,17.04
2023-03-24T13:21:51.807Z,16.86
2023-03-24T13:27:03.526Z,16.62
2023-03-24T13:32:10.480Z,16.58
2023-03-24T13:37:15.119Z,16.76
2023-03-24T13:42:31.749Z,16.95
2023-03-24T13:47:51.363Z,16.96
2023-03-24T13:52:52.328Z,16.76
2023-03-24T13:57:57.812Z,16.64
2023-03-24T14:03:15.434Z,15.94
2023-03-24T14:08:19.187Z,13.26
2023-03-24T14:13:47.893Z,11.28
2023-03-24T14:18:49.329Z,10.72
2023-03-24T14:23:52.593Z,10.52
2023-03-24T14:28:56.360Z,10.40
2023-03-24T14:34:05.872Z,10.28
2023-03-24T14:39:26.319Z,10.35
2023-03-24T14:44:57.188Z,10.53
2023-03-24T14:50:03.945Z,10.53
2023-03-24T14:55:07.761Z,10.56
2023-03-24T15:00:19.657Z,10.65
2023-03-24T15:05:24.957Z,10.83
2023-03-24T15:10:25.760Z,10.83
2023-03-24T15:15:31.663Z,10.83
2023-03-24T15:20:35.848Z,10.88
2023-03-24T15:25:41.972Z,10.93
2023-03-24T15:30:50.528Z,11.07
2023-03-24T15:35:57.103Z,10.90
2023-03-24T15:41:01.028Z,11.11
2023-03-24T15:46:12.450Z,11.18
2023-03-24T15:51:17.209Z,11.41
2023-03-24T15:56:21.726Z,11.68
2023-03-24T16:01:31.076Z,11.78
2023-03-24T16:06:35.248Z,11.79
2023-03-24T16:11:35.996Z,11.76
2023-03-24T16:16:39.541Z,11.69
2023-03-24T16:21:40.481Z,11.85
2023-03-24T16:26:41.134Z,11.94
2023-03-24T16:31:44.175Z,11.79
2023-03-24T16:36:44.803Z,11.65
2023-03-24T16:41:45.902Z,11.54
2023-03-24T16:46:49.260Z,11.53
2023-03-24T16:51:50.123Z,11.46
2023-03-24T16:56:50.932Z,11.57
2023-03-24T17:01:53.682Z,11.52
2023-03-24T17:06:54.974Z,11.57
2023-03-24T17:11:58.430Z,11.20
2023-03-24T17:17:02.857Z,11.18
2023-03-24T17:22:07.050Z,11.04
2023-03-24T17:27:11.659Z,11.20
2023-03-24T17:32:13.709Z,11.23
2023-03-24T17:37:14.351Z,11.23
2023-03-24T17:42:14.975Z,11.22
2023-03-24T17:47:17.141Z,11.09
2023-03-24T17:52:17.853Z,11.17
2023-03-24T17:57:18.911Z,11.14
2023-03-24T18:02:20.857Z,11.30
2023-03-24T18:07:23.036Z,11.28
2023-03-24T18:12:24.685Z,11.26
2023-03-24T18:17:26.707Z,11.32
2023-03-24T18:22:27.711Z,11.31
2023-03-24T18:27:28.441Z,11.28
2023-03-24T18:32:33.017Z,11.21
2023-03-24T18:37:33.737Z,11.22
2023-03-24T18:42:34.452Z,11.23
2023-03-24T18:47:36.566Z,11.27
2023-03-24T18:52:37.276Z,11.28
2023-03-24T18:57:37.947Z,11.28
2023-03-24T19:02:40.544Z,11.15
2023-03-24T19:07:41.283Z,11.05
2023-03-24T19:12:41.923Z,11.04
2023-03-24T19:17:43.890Z,11.00
2023-03-24T19:22:44.563Z,10.92
2023-03-24T19:27:45.503Z,10.87
2023-03-24T19:32:47.694Z,10.84
2023-03-24T19:37:48.435Z,10.84
2023-03-24T19:42:49.263Z,10.90
2023-03-24T19:47:51.289Z,10.86
2023-03-24T19:52:52.048Z,10.91
2023-03-24T19:57:52.740Z,10.84
2023-03-24T20:02:54.779Z,10.88
2023-03-24T20:07:58.482Z,10.69
2023-03-24T20:13:00.457Z,10.52
2023-03-24T20:18:02.746Z,10.45
2023-03-24T20:23:03.439Z,10.38
2023-03-24T20:28:04.176Z,10.43
2023-03-24T20:33:06.450Z,10.39
2023-03-24T20:38:07.138Z,10.35
2023-03-24T20:43:07.787Z,10.42
2023-03-24T20:48:09.734Z,10.43
2023-03-24T20:53:10.375Z,10.37
2023-03-24T20:58:11.288Z,10.53
2023-03-24T21:03:13.347Z,10.54
2023-03-24T21:08:14.064Z,10.47
2023-03-24T21:13:16.761Z,10.51
2023-03-24T21:18:19.298Z,10.59
2023-03-24T21:23:21.558Z,10.58
2023-03-24T21:28:22.202Z,10.49
2023-03-24T21:33:24.288Z,10.54
2023-03-24T21:38:25.443Z,10.53
2023-03-24T21:43:27.090Z,10.30
2023-03-24T21:48:29.206Z,10.32
2023-03-24T21:53:29.918Z,10.32
2023-03-24T21:58:31.523Z,10.13
2023-03-24T22:03:34.568Z,10.14
2023-03-24T22:08:35.307Z,10.24
2023-03-24T22:13:37.100Z,10.45
2023-03-24T22:18:39.082Z,10.67
2023-03-24T22:23:42.392Z,10.67
2023-03-24T22:28:43.451Z,10.84
2023-03-24T22:33:47.518Z,11.04
2023-03-24T22:38:48.205Z,11.23
2023-03-24T22:43:49.264Z,11.39
2023-03-24T22:48:51.582Z,11.64
2023-03-24T22:53:52.477Z,11.73
2023-03-24T22:58:53.206Z,11.75
2023-03-24T23:03:55.376Z,11.77
2023-03-24T23:08:56.958Z,11.79
2023-03-24T23:14:04.334Z,11.72
2023-03-24T23:19:08.498Z,11.64
2023-03-24T23:24:09.402Z,11.64
2023-03-24T23:29:10.172Z,11.64
2023-03-24T23:34:12.867Z,11.54
2023-03-24T23:39:14.536Z,11.48
2023-03-24T23:44:19.570Z,11.43
2023-03-24T23:49:21.605Z,11.32
2023-03-24T23:54:22.293Z,11.18
2023-03-24T23:59:22.931Z,11.13
